createdAt,value
2022-09-01T00:05:33.910Z,74
2022-09-01T00:15:33.977Z,74
2022-09-01T00:25:33.916Z,75
2022-09-01T00:35:34.394Z,75
2022-09-01T00:45:33.876Z,75
2022-09-01T00:55:33.855Z,75
2022-09-01T01:05:33.786Z,76
2022-09-01T01:15:33.817Z,76
2022-09-01T01:25:33.757Z,76
2022-09-01T01:45:33.756Z,77
2022-09-01T01:55:33.691Z,77
2022-09-01T02:05:33.699Z,77
2022-09-01T02:15:33.698Z,77
2022-09-01T02:25:33.640Z,78
2022-09-01T02:35:33.626Z,78
2022-09-01T02:45:33.678Z,78
2022-09-01T02:55:33.583Z,78
2022-09-01T03:05:33.573Z,78
2022-09-01T03:15:33.588Z,79
2022-09-01T03:25:33.518Z,79
2022-09-01T03:35:33.505Z,79
2022-09-01T03:45:33.544Z,79
2022-09-01T03:55:33.466Z,79
2022-09-01T04:05:33.453Z,80
2022-09-01T04:15:33.471Z,80
2022-09-01T04:25:33.416Z,80
2022-09-01T04:35:37.732Z,80
2022-09-01T04:45:33.460Z,80
2022-09-01T04:55:33.355Z,80
2022-09-01T05:05:33.330Z,80
2022-09-01T05:15:33.365Z,81
2022-09-01T05:25:33.339Z,81
2022-09-01T05:35:33.275Z,81
2022-09-01T05:45:44.932Z,81
2022-09-01T05:55:33.291Z,81
2022-09-01T06:05:33.233Z,81
2022-09-01T06:15:33.217Z,81
2022-09-01T06:25:33.257Z,81
2022-09-01T06:35:33.177Z,81
2022-09-01T06:45:33.182Z,81
2022-09-01T06:55:33.175Z,81
2022-09-01T07:06:02.219Z,80
2022-09-01T07:16:32.025Z,80
2022-09-01T07:26:00.703Z,80
2022-09-01T07:35:33.047Z,80
2022-09-01T07:45:33.064Z,79
2022-09-01T07:55:33.057Z,79
2022-09-01T08:05:33.007Z,79
2022-09-01T08:15:41.676Z,78
2022-09-01T08:25:32.990Z,78
2022-09-01T08:35:32.942Z,78
2022-09-01T08:45:32.909Z,77
2022-09-01T08:55:32.929Z,76
2022-09-01T09:05:32.863Z,76
2022-09-01T09:15:32.926Z,76
2022-09-01T09:25:34.385Z,75
2022-09-01T09:35:32.800Z,74
2022-09-01T09:45:32.790Z,72
2022-09-01T09:55:32.787Z,70
2022-09-01T10:05:32.769Z,68
2022-09-01T10:15:32.813Z,66
2022-09-01T10:25:32.735Z,64
2022-09-01T10:35:32.668Z,63
2022-09-01T10:45:32.693Z,61
2022-09-01T10:55:32.746Z,60
2022-09-01T11:05:33.440Z,58
2022-09-01T11:15:32.637Z,58
2022-09-01T11:25:39.250Z,56
2022-09-01T11:35:32.546Z,55
2022-09-01T11:45:32.575Z,55
2022-09-01T11:55:32.531Z,54
2022-09-01T12:05:32.479Z,53
2022-09-01T12:15:32.485Z,52
2022-09-01T12:35:32.419Z,50
2022-09-01T12:45:32.488Z,50
2022-09-01T12:55:47.975Z,49
2022-09-01T13:05:37.306Z,48
2022-09-01T13:15:32.367Z,47
2022-09-01T13:25:32.352Z,46
2022-09-01T13:35:32.313Z,45
2022-09-01T13:45:33.541Z,45
2022-09-01T13:55:32.299Z,44
2022-09-01T14:05:32.243Z,44
2022-09-01T14:15:32.248Z,44
2022-09-01T14:25:32.232Z,43
2022-09-01T14:35:32.181Z,43
2022-09-01T14:45:32.177Z,43
2022-09-01T14:55:32.811Z,42
2022-09-01T15:05:37.738Z,42
2022-09-01T15:15:32.140Z,42
2022-09-01T15:25:32.080Z,41
2022-09-01T15:35:32.068Z,41
2022-09-01T15:45:32.042Z,41
2022-09-01T15:55:32.048Z,41
2022-09-01T16:05:32.001Z,41
2022-09-01T16:15:32.021Z,41
2022-09-01T16:25:31.964Z,41
2022-09-01T16:35:31.946Z,42
2022-09-01T16:45:31.972Z,42
2022-09-01T16:55:31.900Z,43
2022-09-01T17:05:31.885Z,43
2022-09-01T17:15:31.892Z,43
2022-09-01T17:25:31.839Z,44
2022-09-01T17:35:31.806Z,44
2022-09-01T17:45:31.831Z,45
2022-09-01T17:55:31.765Z,46
2022-09-01T18:05:31.759Z,47
2022-09-01T18:15:31.753Z,48
2022-09-01T18:25:31.708Z,49
2022-09-01T18:35:31.679Z,50
2022-09-01T18:45:31.688Z,51
2022-09-01T19:05:33.477Z,53
2022-09-01T19:15:31.666Z,54
2022-09-01T19:25:31.606Z,55
2022-09-01T19:35:31.557Z,55
2022-09-01T19:45:31.532Z,56
2022-09-01T19:55:31.852Z,57
2022-09-01T20:05:31.483Z,57
2022-09-01T20:15:31.514Z,58
2022-09-01T20:25:31.473Z,59
2022-09-01T20:35:32.140Z,60
2022-09-01T20:45:31.413Z,60
2022-09-01T20:55:31.404Z,61
2022-09-01T21:05:31.366Z,61
2022-09-01T21:15:31.345Z,62
2022-09-01T21:25:31.358Z,62
2022-09-01T21:35:31.322Z,63
2022-09-01T21:45:31.284Z,63
2022-09-01T21:55:31.291Z,63
2022-09-01T22:05:31.225Z,64
2022-09-01T22:15:31.230Z,64
2022-09-01T22:25:31.231Z,65
2022-09-01T22:35:31.180Z,65
2022-09-01T22:45:31.175Z,65
2022-09-01T22:55:31.167Z,65
2022-09-01T23:05:31.108Z,66
2022-09-01T23:25:31.102Z,66
2022-09-01T23:35:31.046Z,67
2022-09-01T23:45:35.721Z,67
2022-09-01T23:55:31.048Z,67
